Pagina principale
METAR-TAF:

METAR-TAF

Aeroporti :

Annecy, Francia

latitudine: 45-55-45N, longitudine: 006-05-56E, altezza: 463 m

Osservazione

Il bollettino è stato emesso 13 minuti fa, alle 16:00 UTC
Vento 13 kt da nord/nord-est
Temperature 5°C
Umidità 56%
Pressione 1026 hPa
Visibilità 10 km o più
Cielo coperto ad un'altezza di 5800 ft

METAR: LFLP 201600Z AUTO 03013KT 9999 OVC058 05/M03 Q1026 NOSIG

Ora: 17:13 (16:13 UTC)

Previsione

Il bollettino è stato emesso 2 ore e 13 minuti fa, alle 14:00 UTC
Previsione valida dal 20 alle 15 UTC al 21 alle 15 UTC
Vento 10 kt da nord/nord-est
Visibilità 10 km o più
nessuna nube inferiore a 1500 m e nessun cumulonembo
Evoluzione graduale
dal 20 alle 16 UTC al 20 alle 19 UTC
Nuvoloso ad un'altezza di 3500 ft
Temporaneamente
dal 20 alle 21 UTC al 21 alle 09 UTC
Vento 15 kt da nord/nord-est con raffiche fino a 30 kt

TAF: LFLP 201400Z 2015/2115 02010KT CAVOK BECMG 2016/2019 BKN035 TEMPO 2021/2109 02015G30KT

Osservazioni e previsioni meteorologiche di più di 4000 aeroporti (messaggi METAR e TAF).

Le stazioni disponibili sono rappresentate dai dischi gialli e rossi sulla carta.

Puntare il mouse per vedere il nome della stazione.

Clicca sopra per visualizzare le osservazioni e previsioni meteorologiche.

Per cambiare la mappa : fare clic sui pulsanti verdi con una croce nera per ingrandire, il pulsante verde con un trattino per diminuire, o sulla freccia verde per le mappe adiacenti.


METAR-TAF: